Meteo Giornale » Osservazioni meteo Egitto » Sharm El Sheikhintl
ore: 14:00 - Osservazioni Meteo Sharm El Sheikhintl
Lat. 27° 58' N Lon. 34° 23' E Alt. 50 metri s.l.m.
37 °C
Sereno
Temp. 24 Ore
28 °C
37 °C
Nord
25.9 Km/h
Dew point 19 °C
Umidità 35 %
Visibilità 10 Km
Il sole sorge alle ore 06:21
Il sole tramonta alle ore 19:03
| Data e Ora | Cielo e Fenomeni | T °C | DP °C | Um. % | Pres. hPa | Vis. km | Vento km/h | |
|---|---|---|---|---|---|---|---|---|
| Oggi h: 14:00 | Sereno | 37 | 19 | 35 | 1007 | 10 | N 25.9 | |
| Oggi h: 13:00 | Sereno | 36 | 18 | 34 | 1008 | 10 | N/NE 20.3 | |
| Oggi h: 12:00 | Sereno | 35 | 18 | 36 | 1008 | 10 | N 16.7 | |
| Oggi h: 11:00 | Sereno | 33 | 19 | 43 | 1008 | 10 | N 22.2 | |
| Oggi h: 10:00 | Sereno | 32 | 20 | 49 | 1008 | 10 | N 20.3 | |
| Oggi h: 09:00 | Sereno | 32 | 20 | 49 | 1008 | 10 | N 18.5 | |
| Oggi h: 08:00 | Sereno | 30 | 18 | 48 | 1007 | 10 | N/NO 22.2 | |
| Oggi h: 07:00 | Sereno | 28 | 19 | 58 | 1007 | 10 | N 18.5 | |
| Oggi h: 06:00 | Sereno | 29 | 20 | 58 | 1007 | 10 | N/NO 16.7 | |
| Oggi h: 05:00 | Sereno | 29 | 18 | 51 | 1007 | 10 | N 14.8 | |
| Oggi h: 04:00 | Sereno | 29 | 19 | 54 | 1007 | 10 | N/NO 14.8 | |
| Oggi h: 03:00 | Sereno | 30 | 18 | 48 | 1007 | 10 | N/NO 13 | |
| Oggi h: 02:00 | Sereno | 31 | 12 | 31 | 1006 | 10 | N 11.1 | |
| Oggi h: 01:00 | Sereno | 32 | 12 | 29 | 1007 | 10 | N 9.3 | |
| Oggi h: 00:00 | Sereno | 32 | 11 | 27 | 1007 | 10 | N 7.4 | |
| Ieri h: 23:00 | Sereno | 30 | 13 | 35 | 1007 | 10 | N 13 | |
| Ieri h: 22:00 | Sereno | 31 | 12 | 31 | 1007 | 10 | N/NO 9.3 | |
| Ieri h: 21:00 | Sereno | 32 | 13 | 31 | 1007 | 10 | N/NO 9.3 | |
| Ieri h: 20:00 | Sereno | 33 | 18 | 41 | 1006 | 10 | S 13 | |
| Ieri h: 19:00 | Sereno | 34 | 18 | 38 | 1006 | 10 | S 9.3 | |
| Ieri h: 18:00 | Sereno | 34 | 18 | 38 | 1006 | 10 | S 11.1 | |
| Ieri h: 17:00 | Sereno | 36 | 14 | 26 | 1007 | 10 | E/NE 14.8 | |
| Ieri h: 16:00 | Sereno | 37 | 14 | 25 | 1007 | 10 | E/NE 7.4 | |
| Ieri h: 15:00 | Sereno | 37 | 14 | 25 | 1007 | 10 | NE 11.1 | |



